Time;durP1;ratioP1;P1;durP2;ratioP2;P2;SDS_P1;SDS_P2;PMS_P1;PMS_P2;Temp;Humidity;BMP_temperature;BMP_pressure;BME280_temperature;BME280_humidity;BME280_pressure;Samples;Min_cycle;Max_cycle;Signal;HPM_P1;HPM_P2
2022/03/19 00:01:58;;;;;;;17.90;10.93;;;;;;;5.79;78.73;104405.25;4717628;30;20037;-75
2022/03/19 00:04:23;;;;;;;14.27;11.25;;;;;;;5.55;78.42;104364.75;4717093;30;20041;-75
2022/03/19 00:06:48;;;;;;;17.83;11.45;;;;;;;5.69;78.72;104409.41;4718009;30;20037;-74
2022/03/19 00:09:20;;;;;;;23.40;11.93;;;;;;;4.96;78.76;104300.63;4717820;30;20477;-78
2022/03/19 00:11:45;;;;;;;;;;;;;;;5.57;78.35;104409.22;4718121;30;20040;-74
2022/03/19 00:14:12;;;;;;;15.40;10.73;;;;;;;5.38;79.43;104381.56;4717682;30;19941;-74
2022/03/19 00:16:38;;;;;;;17.65;10.73;;;;;;;5.32;79.60;104387.47;4717885;30;20041;-74
2022/03/19 00:19:03;;;;;;;15.48;11.63;;;;;;;5.47;79.57;104408.22;4717563;30;20402;-74
2022/03/19 00:21:29;;;;;;;14.48;11.70;;;;;;;5.46;79.98;104397.94;4717703;30;20380;-73
2022/03/19 00:23:54;;;;;;;18.15;11.88;;;;;;;5.32;80.36;104378.94;4701940;30;20033;-75
2022/03/19 00:26:20;;;;;;;16.45;11.93;;;;;;;5.27;80.26;104375.41;4717776;30;20044;-78
2022/03/19 00:28:45;;;;;;;15.73;11.48;;;;;;;5.38;80.47;104399.50;4701774;30;20390;-74
2022/03/19 00:31:10;;;;;;;16.38;11.68;;;;;;;5.24;80.62;104383.94;4717344;30;20064;-74
2022/03/19 00:33:36;;;;;;;21.25;12.43;;;;;;;5.29;80.87;104394.25;4701754;30;20030;-78
2022/03/19 00:36:01;;;;;;;15.98;12.40;;;;;;;5.32;80.55;104394.31;4717494;30;20091;-76
2022/03/19 00:38:27;;;;;;;17.95;12.10;;;;;;;5.28;81.03;104401.06;4717271;30;20490;-74
2022/03/19 00:40:52;;;;;;;16.80;11.63;;;;;;;5.17;80.86;104388.06;4717399;30;20483;-74
2022/03/19 00:43:21;;;;;;;17.98;12.20;;;;;;;5.12;81.47;104389.72;4716741;30;20029;-74
2022/03/19 00:45:49;;;;;;;15.85;12.25;;;;;;;5.13;81.67;104398.25;4701465;30;20415;-75
2022/03/19 00:48:15;;;;;;;16.38;12.23;;;;;;;5.06;81.95;104383.63;4717194;30;20111;-74
2022/03/19 00:50:42;;;;;;;17.83;12.40;;;;;;;4.86;81.79;104361.09;4717053;30;20123;-74
2022/03/19 00:53:10;;;;;;;18.08;12.60;;;;;;;5.01;82.22;104393.78;4717056;30;20025;-74
2022/03/19 00:55:36;;;;;;;17.83;13.30;;;;;;;4.95;82.66;104392.81;4717132;30;20455;-74
2022/03/19 00:58:01;;;;;;;15.73;13.68;;;;;;;4.93;82.74;104397.06;4716831;30;20112;-75
2022/03/19 01:00:27;;;;;;;22.00;14.20;;;;;;;4.83;83.28;104380.66;4716575;30;20548;-76
2022/03/19 01:02:54;;;;;;;23.15;14.73;;;;;;;4.86;83.71;104383.28;4717112;30;20033;-75
2022/03/19 01:05:20;;;;;;;20.30;14.52;;;;;;;4.77;83.61;104368.59;4716955;30;20025;-75
2022/03/19 01:07:48;;;;;;;18.77;14.38;;;;;;;4.48;84.11;104322.00;4701289;30;20462;-75
2022/03/19 01:10:16;;;;;;;22.45;15.30;;;;;;;4.63;84.15;104356.41;4716792;30;20033;-74
2022/03/19 01:12:42;;;;;;;19.88;15.20;;;;;;;4.86;84.48;104390.94;4717289;30;20033;-74
2022/03/19 01:15:09;;;;;;;22.23;15.48;;;;;;;4.82;84.20;104384.94;4717230;30;20103;-74
2022/03/19 01:17:35;;;;;;;21.85;15.57;;;;;;;4.84;84.73;104382.38;4716872;30;20116;-74
2022/03/19 01:20:02;;;;;;;22.27;15.07;;;;;;;4.72;84.49;104370.22;4716396;30;20112;-75
2022/03/19 01:22:28;;;;;;;20.65;15.00;;;;;;;4.79;85.23;104386.53;4701203;30;20076;-77
2022/03/19 01:24:54;;;;;;;21.50;14.93;;;;;;;4.62;85.38;104365.75;4716909;30;20410;-74
2022/03/19 01:27:20;;;;;;;20.92;15.73;;;;;;;4.73;85.60;104387.31;4716965;30;20030;-78
2022/03/19 01:29:45;;;;;;;21.17;14.82;;;;;;;4.71;85.70;104388.09;4717151;30;20037;-80
2022/03/19 01:32:11;;;;;;;24.15;16.52;;;;;;;4.67;86.22;104384.63;4716600;30;20075;-78
2022/03/19 01:34:36;;;;;;;21.27;15.57;;;;;;;4.64;86.26;104388.84;4716760;30;20548;-79
2022/03/19 01:37:02;;;;;;;19.98;15.65;;;;;;;4.32;86.25;104346.41;4716874;30;20108;-79
2022/03/19 01:39:27;;;;;;;24.08;16.00;;;;;;;4.61;86.96;104392.19;4716770;30;20490;-79
2022/03/19 01:41:53;;;;;;;20.13;16.38;;;;;;;4.61;86.98;104389.63;4716942;30;20052;-80
2022/03/19 01:44:22;;;;;;;21.52;15.35;;;;;;;4.59;87.01;104393.84;4716729;30;20068;-78
2022/03/19 01:46:56;;;;;;;21.73;16.25;;;;;;;4.55;87.51;104384.41;4716886;30;20065;-78
2022/03/19 01:49:22;;;;;;;21.98;15.88;;;;;;;4.43;87.40;104366.25;4716676;30;20037;-74
2022/03/19 01:51:47;;;;;;;23.08;15.98;;;;;;;4.47;87.94;104381.69;4716665;30;20064;-78
2022/03/19 01:54:14;;;;;;;19.92;14.95;;;;;;;4.44;88.17;104379.09;4716584;30;20446;-75
2022/03/19 01:56:44;;;;;;;21.35;15.88;;;;;;;4.31;88.55;104357.47;4716880;30;20080;-78
2022/03/19 01:59:11;;;;;;;23.88;15.88;;;;;;;4.47;88.80;104370.59;4716831;30;20448;-76
2022/03/19 02:01:37;;;;;;;23.52;16.48;;;;;;;4.38;89.03;104355.91;4716627;30;20036;-80
2022/03/19 02:04:03;;;;;;;22.95;15.57;;;;;;;4.36;89.16;104359.28;4718371;30;20041;-79
2022/03/19 02:06:30;;;;;;;22.13;15.95;;;;;;;4.43;89.91;104371.38;4719815;30;20076;-74
2022/03/19 02:09:00;;;;;;;21.95;15.10;;;;;;;4.31;89.80;104362.59;4719917;30;20550;-79
2022/03/19 02:11:26;;;;;;;22.70;15.30;;;;;;;4.38;89.79;104368.72;4704185;30;20037;-75
2022/03/19 02:13:52;;;;;;;25.85;16.02;;;;;;;4.25;89.79;104354.81;4720096;30;20100;-78
2022/03/19 02:16:17;;;;;;;21.17;15.82;;;;;;;4.28;90.14;104359.13;4719660;30;20026;-78
2022/03/19 02:18:42;;;;;;;21.88;15.45;;;;;;;4.29;90.24;104363.41;4719770;30;20043;-77
2022/03/19 02:21:08;;;;;;;23.13;14.80;;;;;;;4.22;90.34;104354.75;4719598;30;20374;-77
2022/03/19 02:26:17;;;;;;;23.48;14.55;;;;;;;4.13;90.40;104356.25;4719961;30;20088;-78
2022/03/19 02:28:42;;;;;;;21.13;14.73;;;;;;;3.95;89.83;104338.84;4719590;30;20060;-77
2022/03/19 02:31:08;;;;;;;21.50;15.07;;;;;;;3.97;91.22;104337.19;4719378;30;20166;-77
2022/03/19 02:33:33;;;;;;;24.88;15.63;;;;;;;3.97;91.40;104339.75;4719478;30;20036;-78
2022/03/19 02:35:59;;;;;;;24.63;15.02;;;;;;;3.90;91.56;104328.53;4719273;30;20458;-78
2022/03/19 02:38:24;;;;;;;22.90;15.57;;;;;;;3.90;91.85;104340.44;4719423;30;20041;-78
2022/03/19 02:40:49;;;;;;;22.95;14.95;;;;;;;3.88;91.71;104334.44;4719615;30;20094;-79
2022/03/19 02:43:15;;;;;;;20.40;15.18;;;;;;;3.65;91.88;104309.25;4719397;30;20106;-78
2022/03/19 02:45:40;;;;;;;23.95;15.95;;;;;;;3.74;92.33;104331.59;4719371;30;20402;-79
2022/03/19 02:48:05;;;;;;;21.42;15.27;;;;;;;3.79;92.52;104342.78;4703608;30;20380;-79
2022/03/19 02:50:33;;;;;;;24.38;16.33;;;;;;;3.81;93.48;104335.13;4718894;30;20033;-78
2022/03/19 02:53:03;;;;;;;20.10;14.43;;;;;;;3.67;92.41;104322.06;4719082;30;20411;-76
2022/03/19 02:55:33;;;;;;;22.13;15.40;;;;;;;3.69;92.62;104341.72;4719330;30;20387;-80
2022/03/19 02:57:59;;;;;;;25.17;15.50;;;;;;;3.66;92.86;104345.91;4719231;30;20490;-76
2022/03/19 03:00:25;;;;;;;21.15;15.00;;;;;;;3.53;93.27;104316.63;4719068;30;20298;-77
2022/03/19 03:02:50;;;;;;;21.40;15.00;;;;;;;3.63;93.93;104338.13;4718855;30;20120;-78
2022/03/19 03:05:16;;;;;;;24.85;15.13;;;;;;;3.71;94.34;104345.16;4718969;30;20036;-77
2022/03/19 03:07:41;;;;;;;27.15;15.93;;;;;;;3.59;94.29;104309.09;4701823;30;20443;-77
2022/03/19 03:10:08;;;;;;;25.38;14.35;;;;;;;3.73;94.50;104327.28;4718360;30;20048;-78
2022/03/19 03:12:36;;;;;;;24.15;14.80;;;;;;;3.74;94.94;104335.03;4718754;30;20041;-80
2022/03/19 03:15:02;;;;;;;25.85;14.98;;;;;;;3.76;94.51;104321.41;4718643;30;20565;-79
2022/03/19 03:17:28;;;;;;;23.50;15.43;;;;;;;3.76;95.04;104323.97;4718625;30;20095;-79
2022/03/19 03:19:54;;;;;;;26.85;15.18;;;;;;;3.77;95.23;104330.78;4718792;30;20041;-78
2022/03/19 03:22:21;;;;;;;24.63;14.60;;;;;;;3.74;95.26;104323.94;4702667;30;20045;-74
2022/03/19 03:24:47;;;;;;;21.80;14.52;;;;;;;3.74;95.78;104329.03;4718628;30;20107;-79
2022/03/19 03:27:12;;;;;;;21.85;14.38;;;;;;;3.65;95.92;104314.38;4718486;30;20041;-75
2022/03/19 03:29:37;;;;;;;24.50;14.60;;;;;;;3.59;95.74;104304.00;4718605;30;20037;-74
2022/03/19 03:32:04;;;;;;;20.52;14.73;;;;;;;3.70;95.91;104322.97;4718261;30;20146;-75
2022/03/19 03:34:29;;;;;;;22.75;14.50;;;;;;;3.65;96.01;104311.81;4718484;30;20033;-76
2022/03/19 03:36:54;;;;;;;24.00;14.60;;;;;;;3.65;96.17;104319.47;4718481;30;20138;-73
2022/03/19 03:39:20;;;;;;;23.77;14.68;;;;;;;3.66;96.71;104321.19;4702200;30;20053;-74
2022/03/19 03:41:46;;;;;;;23.73;14.05;;;;;;;3.68;96.66;104322.09;4718643;30;20033;-76
2022/03/19 03:44:11;;;;;;;25.90;14.43;;;;;;;3.68;96.54;104319.53;4718440;30;20182;-75
2022/03/19 03:46:36;;;;;;;22.65;14.88;;;;;;;3.65;96.07;104316.94;4702593;30;20045;-74
2022/03/19 03:49:02;;;;;;;23.15;14.25;;;;;;;3.68;96.98;104319.53;4718249;30;20033;-75
2022/03/19 03:51:27;;;;;;;21.35;14.23;;;;;;;3.68;96.46;104318.69;4718040;30;20051;-75
2022/03/19 03:53:53;;;;;;;23.23;14.52;;;;;;;3.53;96.56;104292.78;4718134;30;20040;-75
2022/03/19 03:56:18;;;;;;;24.92;14.63;;;;;;;3.64;96.93;104315.19;4718241;30;20116;-75
2022/03/19 03:58:43;;;;;;;24.98;14.15;;;;;;;3.67;97.03;104306.72;4718194;30;20068;-74
2022/03/19 04:01:12;;;;;;;24.67;14.38;;;;;;;3.69;96.91;104312.72;4702185;30;20053;-74
2022/03/19 04:03:37;;;;;;;25.20;14.40;;;;;;;3.59;96.86;104288.66;4718058;30;20399;-74
2022/03/19 04:06:03;;;;;;;26.70;16.35;;;;;;;3.72;97.34;104294.91;4718154;30;20033;-73
2022/03/19 04:08:29;;;;;;;23.80;14.10;;;;;;;3.69;97.36;104294.84;4717912;30;20408;-74
2022/03/19 04:10:54;;;;;;;23.15;14.60;;;;;;;3.53;97.26;104285.97;4717779;30;20073;-75
2022/03/19 04:13:19;;;;;;;23.45;14.18;;;;;;;3.69;97.35;104299.94;4716899;30;20049;-74
2022/03/19 04:15:45;;;;;;;23.98;14.05;;;;;;;3.67;96.95;104305.03;4717365;30;20123;-74
2022/03/19 04:18:13;;;;;;;22.80;15.35;;;;;;;3.70;97.05;104301.66;4717996;30;20037;-74
2022/03/19 04:20:39;;;;;;;21.45;14.48;;;;;;;3.38;97.00;104248.19;4717697;30;20494;-74
2022/03/19 04:23:04;;;;;;;21.00;15.13;;;;;;;3.65;97.17;104287.94;4717672;30;20064;-74
2022/03/19 04:25:29;;;;;;;21.95;14.30;;;;;;;3.75;97.09;104297.53;4717365;30;20037;-74
2022/03/19 04:27:56;;;;;;;24.25;14.93;;;;;;;3.77;97.04;104297.56;4717554;30;20090;-74
2022/03/19 04:30:24;;;;;;;24.52;14.13;;;;;;;3.77;96.87;104300.97;4717551;30;20106;-74
2022/03/19 04:33:01;;;;;;;22.55;14.15;;;;;;;3.63;96.77;104281.91;4717416;30;20041;-74
2022/03/19 04:38:15;;;;;;;21.58;14.60;;;;;;;3.62;96.92;104270.84;4717541;30;20046;-74
2022/03/19 04:40:42;;;;;;;23.23;14.73;;;;;;;3.52;96.40;104256.13;4717408;30;20144;-74
2022/03/19 04:43:08;;;;;;;24.40;14.65;;;;;;;3.67;96.76;104274.38;4717373;30;20048;-74
2022/03/19 04:45:35;;;;;;;22.00;14.15;;;;;;;3.70;96.82;104276.97;4717385;30;20124;-74
2022/03/19 04:48:00;;;;;;;19.52;13.65;;;;;;;3.71;96.75;104276.13;4716716;30;20552;-74
2022/03/19 04:50:25;;;;;;;21.33;15.57;;;;;;;3.56;96.41;104249.41;4717232;30;20116;-74
2022/03/19 04:52:52;;;;;;;20.27;14.10;;;;;;;3.72;96.77;104284.66;4717032;30;20041;-74
2022/03/19 04:55:19;;;;;;;24.63;13.68;;;;;;;3.71;96.87;104275.28;4717358;30;20175;-74
2022/03/19 04:57:46;;;;;;;23.42;14.07;;;;;;;3.73;96.62;104277.03;4717347;30;20029;-75
2022/03/19 05:00:13;;;;;;;29.05;16.08;;;;;;;3.71;96.69;104278.69;4717150;30;20032;-74
2022/03/19 05:02:42;;;;;;;22.80;14.50;;;;;;;3.52;96.36;104250.16;4717158;30;20033;-74
2022/03/19 05:05:08;;;;;;;23.25;13.93;;;;;;;3.74;96.23;104283.03;4716908;30;20036;-74
2022/03/19 05:07:35;;;;;;;25.33;15.63;;;;;;;3.75;96.29;104277.09;4716559;30;20498;-75
2022/03/19 05:12:48;;;;;;;23.73;14.95;;;;;;;3.71;96.39;104288.06;4717075;30;20497;-74
2022/03/19 05:15:15;;;;;;;25.80;15.07;;;;;;;3.67;96.49;104278.63;4716987;30;20033;-75
2022/03/19 05:17:41;;;;;;;26.75;14.80;;;;;;;3.60;96.42;104277.59;4716905;30;20044;-74
2022/03/19 05:20:08;;;;;;;25.70;15.13;;;;;;;3.59;96.82;104288.66;4716936;30;20044;-74
2022/03/19 05:22:34;;;;;;;25.73;15.02;;;;;;;3.64;96.39;104287.09;4701297;30;20409;-74
2022/03/19 05:25:00;;;;;;;21.77;14.93;;;;;;;3.44;96.22;104261.09;4716654;30;20029;-75
2022/03/19 05:27:26;;;;;;;26.67;14.15;;;;;;;3.58;96.73;104283.53;4716949;30;20044;-74
2022/03/19 05:29:53;;;;;;;24.40;15.77;;;;;;;3.61;96.86;104293.81;4716765;30;20053;-73
2022/03/19 05:32:20;;;;;;;23.02;15.90;;;;;;;3.58;96.84;104297.16;4716771;30;20033;-74
2022/03/19 05:34:46;;;;;;;23.15;14.65;;;;;;;3.56;96.81;104296.28;4716750;30;20033;-74
2022/03/19 05:37:13;;;;;;;21.90;14.73;;;;;;;3.37;96.70;104268.59;4716713;30;20058;-75
2022/03/19 05:39:39;;;;;;;28.52;14.52;;;;;;;3.50;96.71;104291.03;4719409;30;20404;-75
2022/03/19 05:42:06;;;;;;;26.65;14.25;;;;;;;3.38;96.43;104290.75;4720302;30;20498;-73
2022/03/19 05:44:32;;;;;;;19.85;14.48;;;;;;;3.45;96.98;104295.19;4720285;30;20518;-74
2022/03/19 05:46:58;;;;;;;24.10;15.80;;;;;;;3.33;97.13;104280.41;4704304;30;20041;-74
2022/03/19 05:49:27;;;;;;;25.20;15.50;;;;;;;3.46;97.32;104307.13;4704596;30;20108;-74
2022/03/19 05:51:54;;;;;;;24.92;15.13;;;;;;;3.27;97.42;104271.78;4720070;30;20041;-74
2022/03/19 05:54:19;;;;;;;23.15;15.00;;;;;;;3.33;97.54;104282.09;4720160;30;20454;-74
2022/03/19 05:56:45;;;;;;;25.52;15.50;;;;;;;3.42;97.20;104300.19;4704529;30;20041;-74
2022/03/19 05:59:10;;;;;;;20.05;14.43;;;;;;;3.44;97.00;104301.97;4719992;30;20037;-74
2022/03/19 06:01:36;;;;;;;23.65;15.15;;;;;;;3.36;97.27;104293.28;4720036;30;20465;-74
2022/03/19 06:04:02;;;;;;;28.40;16.42;;;;;;;3.46;96.97;104312.22;4720061;30;20041;-74
2022/03/19 06:06:28;;;;;;;24.77;15.68;;;;;;;3.39;96.94;104300.13;4719962;30;20057;-74
2022/03/19 06:08:54;;;;;;;25.70;14.98;;;;;;;3.45;97.16;104306.25;4719719;30;20044;-75
2022/03/19 06:11:20;;;;;;;24.05;15.50;;;;;;;3.44;97.18;104311.31;4719818;30;20384;-74
2022/03/19 06:13:45;;;;;;;28.63;14.40;;;;;;;3.41;97.30;104308.69;4703831;30;20037;-75
2022/03/19 06:16:10;;;;;;;21.95;15.38;;;;;;;3.50;97.20;104308.03;4719877;30;20407;-74
2022/03/19 06:18:36;;;;;;;22.70;15.23;;;;;;;3.51;96.97;104310.63;4719651;30;20037;-75
2022/03/19 06:21:02;;;;;;;26.42;16.05;;;;;;;3.40;96.64;104295.06;4719463;30;20558;-76
2022/03/19 06:23:27;;;;;;;22.45;14.70;;;;;;;3.55;96.73;104314.13;4719910;30;20029;-73
2022/03/19 06:25:53;;;;;;;27.00;16.08;;;;;;;3.46;96.68;104304.56;4719526;30;20033;-73
2022/03/19 06:28:18;;;;;;;23.63;15.50;;;;;;;3.35;97.03;104283.88;4719577;30;20087;-74
2022/03/19 06:30:43;;;;;;;24.63;15.45;;;;;;;3.47;96.69;104303.72;4719165;30;20084;-74
2022/03/19 06:33:11;;;;;;;22.75;14.88;;;;;;;3.48;97.10;104302.91;4719386;30;20038;-75
2022/03/19 06:38:26;;;;;;;21.33;14.95;;;;;;;3.62;96.57;104303.19;4719707;30;20142;-73
2022/03/19 06:40:51;;;;;;;23.00;14.82;;;;;;;3.74;96.79;104318.81;4719369;30;20449;-74
2022/03/19 06:43:17;;;;;;;24.52;15.00;;;;;;;3.80;96.20;104311.25;4719293;30;20115;-74
2022/03/19 06:45:42;;;;;;;25.05;14.60;;;;;;;3.81;96.29;104304.44;4719418;30;20057;-74
2022/03/19 06:48:10;;;;;;;26.02;14.38;;;;;;;3.83;95.83;104288.31;4719161;30;20072;-74
2022/03/19 06:50:35;;;;;;;22.70;14.57;;;;;;;3.89;95.38;104282.47;4718558;30;20036;-74
2022/03/19 06:53:05;;;;;;;23.70;15.27;;;;;;;4.35;95.43;104312.38;4719332;30;20037;-73
2022/03/19 06:55:32;;;;;;;21.48;12.95;;;;;;;5.04;92.16;104295.66;4719113;30;20533;-75
2022/03/19 06:57:58;;;;;;;19.63;12.95;;;;;;;5.77;88.75;104304.38;4719244;30;20111;-74
2022/03/19 07:00:23;;;;;;;20.63;12.50;;;;;;;6.17;86.72;104310.00;4719342;30;20443;-75
2022/03/19 07:02:53;;;;;;;20.00;11.65;;;;;;;6.31;85.02;104308.47;4718874;30;20295;-74
2022/03/19 07:05:30;;;;;;;19.38;12.00;;;;;;;6.01;85.12;104309.84;4718982;30;20064;-74
2022/03/19 07:07:57;;;;;;;20.95;11.45;;;;;;;5.67;86.39;104297.41;4719230;30;20033;-74
2022/03/19 07:14:07;;;;;;;16.17;10.90;;;;;;;4.51;88.05;104147.16;4664569;30;20039;-75
2022/03/19 07:16:32;;;;;;;20.13;11.45;;;;;;;5.48;88.79;104307.41;4630967;30;20055;-72
2022/03/19 07:18:58;;;;;;;17.45;10.85;;;;;;;5.53;88.34;104301.50;4631206;31;20055;-74
2022/03/19 07:21:23;;;;;;;17.65;10.63;;;;;;;5.57;88.28;104300.69;4631097;31;20051;-74
2022/03/19 07:23:50;;;;;;;15.63;10.82;;;;;;;5.61;88.42;104303.31;4631234;31;20040;-76
2022/03/19 07:26:16;;;;;;;17.27;10.30;;;;;;;5.67;87.69;104305.09;4630812;31;20054;-76
2022/03/19 07:28:41;;;;;;;16.92;10.57;;;;;;;5.76;87.01;104300.94;4630965;31;20342;-77
2022/03/19 07:31:06;;;;;;;16.55;11.05;;;;;;;5.64;87.45;104270.03;4630626;31;20387;-74
2022/03/19 07:33:34;;;;;;;18.00;10.90;;;;;;;5.92;87.26;104299.47;4630905;30;20043;-75
2022/03/19 07:36:04;;;;;;;18.92;10.95;;;;;;;6.00;87.28;104289.31;4631178;31;20035;-75
2022/03/19 07:38:31;;;;;;;16.65;10.25;;;;;;;6.10;86.42;104291.13;4631056;31;20043;-75
2022/03/19 07:43:41;;;;;;;16.55;9.82;;;;;;;5.93;84.54;104244.75;4631256;31;20107;-76
2022/03/19 07:46:12;;;;;;;17.40;9.85;;;;;;;6.35;84.06;104296.53;4630705;30;20467;-76
2022/03/19 07:48:38;;;;;;;14.02;9.35;;;;;;;6.40;85.08;104292.31;4630712;31;20545;-75
2022/03/19 07:51:03;;;;;;;17.48;10.70;;;;;;;6.48;83.50;104291.50;4658496;30;20039;-75
2022/03/19 07:53:28;;;;;;;16.63;9.40;;;;;;;6.50;82.53;104288.97;4694846;30;20080;-74
2022/03/19 07:55:55;;;;;;;15.18;9.00;;;;;;;6.56;82.33;104291.59;4717865;30;20120;-75
2022/03/19 07:58:20;;;;;;;16.30;9.38;;;;;;;6.58;81.96;104295.88;4702482;30;20234;-75
2022/03/19 08:00:45;;;;;;;16.13;8.43;;;;;;;6.64;82.19;104286.53;4717325;30;20037;-80
2022/03/19 08:03:11;;;;;;;14.88;8.88;;;;;;;6.69;82.30;104285.72;4718039;30;20057;-76
2022/03/19 08:05:39;;;;;;;12.55;9.18;;;;;;;6.65;81.16;104267.69;4720485;30;20049;-75
2022/03/19 08:08:06;;;;;;;16.08;8.65;;;;;;;6.63;81.67;104246.28;4735205;30;20032;-72
2022/03/19 08:10:32;;;;;;;16.08;9.48;;;;;;;6.86;80.60;104273.88;4733693;30;20579;-73
2022/03/19 08:13:04;;;;;;;17.55;8.45;;;;;;;6.97;80.52;104291.06;4735286;30;20041;-80
2022/03/19 08:15:30;;;;;;;20.27;9.20;;;;;;;7.00;80.35;104276.56;4735398;30;20028;-75
2022/03/19 08:17:55;;;;;;;14.23;8.23;;;;;;;6.88;79.16;104253.31;4719612;30;20048;-76
2022/03/19 08:20:21;;;;;;;14.73;8.70;;;;;;;7.17;77.96;104299.78;4735168;30;20512;-79
2022/03/19 08:22:47;;;;;;;12.65;7.65;;;;;;;7.16;77.17;104296.34;4735069;30;20570;-74
2022/03/19 08:25:13;;;;;;;12.93;7.45;;;;;;;7.14;76.93;104305.78;4719335;30;20542;-76
2022/03/19 08:27:38;;;;;;;12.90;7.10;;;;;;;7.00;77.01;104279.13;4735053;30;20064;-74
2022/03/19 08:30:04;;;;;;;12.70;7.60;;;;;;;7.16;77.32;104287.78;4735204;30;20037;-75
2022/03/19 08:32:30;;;;;;;13.80;6.93;;;;;;;7.25;76.93;104293.00;4734953;30;20048;-79
2022/03/19 08:34:55;;;;;;;13.35;7.18;;;;;;;7.28;76.03;104300.75;4735026;30;20067;-75
2022/03/19 08:37:20;;;;;;;15.35;7.40;;;;;;;7.26;76.56;104281.00;4734827;30;20060;-74
2022/03/19 08:42:33;;;;;;;13.55;6.95;;;;;;;7.38;75.43;104288.81;4735111;30;20079;-74
2022/03/19 08:44:58;;;;;;;11.75;6.15;;;;;;;7.39;74.23;104272.53;4734946;30;20024;-79
2022/03/19 08:47:23;;;;;;;14.95;6.68;;;;;;;7.47;74.55;104297.44;4734867;30;20466;-78
2022/03/19 08:49:49;;;;;;;10.52;6.50;;;;;;;7.56;74.48;104298.31;4734790;30;20421;-74
2022/03/19 08:52:14;;;;;;;14.88;6.75;;;;;;;7.59;73.99;104293.19;4734589;30;20504;-75
2022/03/19 08:54:39;;;;;;;11.98;6.43;;;;;;;7.64;74.27;104287.22;4734582;30;20443;-77
2022/03/19 08:57:05;;;;;;;12.95;6.25;;;;;;;7.46;74.18;104243.38;4734425;30;20502;-77
2022/03/19 08:59:30;;;;;;;16.00;6.88;;;;;;;7.81;73.13;104289.00;4717855;30;20139;-77
2022/03/19 09:01:55;;;;;;;10.63;6.35;;;;;;;7.82;73.41;104291.56;4734604;30;20028;-76
2022/03/19 09:04:21;;;;;;;14.43;6.47;;;;;;;7.93;72.87;104289.91;4734551;30;20408;-72
2022/03/19 09:06:47;;;;;;;13.73;6.82;;;;;;;7.98;72.21;104284.78;4734621;30;20465;-76
2022/03/19 09:09:14;;;;;;;12.10;6.30;;;;;;;7.91;73.49;104259.88;4734249;30;20449;-79
2022/03/19 09:11:41;;;;;;;12.30;6.72;;;;;;;8.15;72.65;104277.09;4718353;30;20049;-76
2022/03/19 09:14:08;;;;;;;16.63;6.22;;;;;;;8.17;70.55;104283.13;4734399;30;20032;-75
2022/03/19 09:16:34;;;;;;;14.77;7.30;;;;;;;8.16;70.61;104284.84;4734515;30;20029;-73
2022/03/19 09:18:59;;;;;;;11.57;6.13;;;;;;;8.17;71.45;104271.09;4734511;30;20110;-79
2022/03/19 09:21:25;;;;;;;12.25;6.72;;;;;;;8.22;70.89;104271.97;4734247;30;20047;-78
2022/03/19 09:23:50;;;;;;;12.82;5.97;;;;;;;8.03;70.18;104242.75;4734273;30;20085;-78
2022/03/19 09:26:19;;;;;;;10.82;6.68;;;;;;;8.01;69.62;104230.72;4718274;30;20048;-76
2022/03/19 09:28:48;;;;;;;10.60;6.15;;;;;;;7.98;69.04;104223.00;4734105;30;20033;-77
2022/03/19 09:31:16;;;;;;;10.73;6.22;;;;;;;8.34;69.71;104268.53;4734011;30;20094;-75
2022/03/19 09:33:42;;;;;;;10.20;5.53;;;;;;;8.39;69.26;104266.03;4734273;30;20064;-80
2022/03/19 09:36:07;;;;;;;12.32;5.88;;;;;;;8.18;67.38;104238.50;4734206;30;20060;-79
2022/03/19 09:38:32;;;;;;;9.88;5.30;;;;;;;8.32;68.58;104260.81;4734200;30;20036;-78
2022/03/19 09:40:59;;;;;;;13.20;6.28;;;;;;;8.32;68.90;104245.38;4734558;30;20041;-76
2022/03/19 09:43:26;;;;;;;12.95;6.05;;;;;;;8.43;69.52;104244.56;4734034;30;20037;-77
2022/03/19 09:45:52;;;;;;;12.32;5.68;;;;;;;8.48;68.00;104235.97;4734212;30;20078;-79
2022/03/19 09:48:19;;;;;;;12.27;5.53;;;;;;;8.47;67.56;104205.94;4734328;30;20075;-77
2022/03/19 09:50:45;;;;;;;10.30;4.90;;;;;;;8.58;64.24;104216.22;4734052;30;20104;-80
2022/03/19 09:53:11;;;;;;;11.20;4.97;;;;;;;8.80;63.70;104256.56;4734079;30;20036;-79
2022/03/19 09:55:38;;;;;;;13.43;5.85;;;;;;;8.84;65.03;104242.81;4734365;30;20037;-79
2022/03/19 09:58:04;;;;;;;12.98;6.00;;;;;;;8.91;63.49;104246.25;4734259;30;20040;-81
2022/03/19 10:00:31;;;;;;;10.10;6.00;;;;;;;8.96;63.60;104234.25;4734438;30;20422;-81
2022/03/19 10:02:59;;;;;;;12.48;5.25;;;;;;;8.96;62.45;104228.22;4734031;30;20122;-79
2022/03/19 10:10:57;;;;;;;10.05;4.45;;;;;;;8.95;60.28;104192.97;4734277;30;20043;-80
2022/03/19 10:13:24;;;;;;;9.93;4.35;;;;;;;9.14;59.42;104210.09;4733795;30;20032;-80
2022/03/19 10:15:50;;;;;;;13.07;4.82;;;;;;;9.25;60.09;104216.13;4733953;30;20228;-81
2022/03/19 10:18:15;;;;;;;10.23;4.88;;;;;;;9.26;59.57;104196.34;4733724;30;20064;-82
2022/03/19 10:20:47;;;;;;;11.88;4.78;;;;;;;9.45;57.82;104200.56;4733573;30;20029;-82
2022/03/19 10:23:12;;;;;;;9.73;4.40;;;;;;;9.51;57.31;104197.09;4733940;30;20068;-83
2022/03/19 10:25:37;;;;;;;9.70;3.92;;;;;;;9.34;55.58;104161.03;4736400;30;20104;-80
2022/03/19 10:28:11;;;;;;;10.02;4.45;;;;;;;9.57;57.16;104192.75;4736987;30;20048;-79
2022/03/19 10:30:40;;;;;;;10.48;4.63;;;;;;;9.58;55.47;104183.31;4736979;30;20087;-80
2022/03/19 10:33:10;;;;;;;10.10;4.10;;;;;;;9.68;55.13;104182.38;4736799;30;20036;-79
2022/03/19 10:35:41;;;;;;;10.65;4.20;;;;;;;9.71;54.92;104184.94;4737287;30;20037;-80
2022/03/19 10:38:18;;;;;;;10.07;4.18;;;;;;;9.77;53.53;104184.91;4736912;30;20029;-79
2022/03/19 10:40:48;;;;;;;8.23;4.40;;;;;;;9.79;50.65;104183.19;4736660;30;20036;-80
2022/03/19 10:43:17;;;;;;;9.07;4.00;;;;;;;9.74;51.78;104166.88;4736630;30;20028;-79
2022/03/19 10:45:45;;;;;;;10.38;4.00;;;;;;;9.84;51.92;104173.69;4720609;30;20047;-78
2022/03/19 10:48:12;;;;;;;8.82;3.53;;;;;;;9.86;52.19;104166.78;4736912;30;20037;-79
2022/03/19 10:50:41;;;;;;;9.10;3.63;;;;;;;9.87;51.85;104147.84;4736659;30;20471;-79
2022/03/19 10:53:10;;;;;;;9.85;4.47;;;;;;;9.91;53.13;104143.50;4736763;30;20482;-79
2022/03/19 10:55:35;;;;;;;9.70;4.60;;;;;;;9.82;52.28;104110.00;4736434;30;20071;-79
2022/03/19 10:58:01;;;;;;;9.70;3.53;;;;;;;10.05;50.94;104139.97;4736611;30;20053;-78
2022/03/19 11:00:27;;;;;;;6.95;3.47;;;;;;;10.06;51.01;104138.25;4720543;30;20092;-79
2022/03/19 11:02:57;;;;;;;8.32;3.70;;;;;;;10.20;46.38;104162.22;4736337;30;20119;-79
2022/03/19 11:05:45;;;;;;;7.82;3.13;;;;;;;10.21;48.65;104135.53;4736472;30;20040;-79
2022/03/19 11:08:16;;;;;;;7.80;3.10;;;;;;;10.16;47.74;104098.56;4736368;30;20040;-79
2022/03/19 11:14:07;;;;;;;6.88;2.85;;;;;;;9.80;43.95;103980.97;4709918;30;20107;-80
2022/03/19 11:17:23;;;;;;;5.25;2.42;;;;;;;10.37;43.89;104060.50;4736345;30;20025;-80
2022/03/19 11:19:38;;;;;;;7.05;2.83;;;;;;;10.28;42.79;104045.97;4731219;30;20047;-80
2022/03/19 11:22:04;;;;;;;7.20;2.60;;;;;;;10.43;41.13;104060.47;4736496;30;20032;-79
2022/03/19 11:24:32;;;;;;;8.55;3.22;;;;;;;10.66;41.69;104081.72;4736033;30;20032;-80
2022/03/19 11:26:58;;;;;;;5.57;2.50;;;;;;;10.68;40.14;104087.72;4736068;30;20029;-80
2022/03/19 11:29:27;;;;;;;6.60;2.60;;;;;;;10.79;39.06;104101.38;4735921;30;20028;-79
2022/03/19 11:32:01;;;;;;;8.18;2.63;;;;;;;10.62;39.05;104057.66;4735250;30;20053;-79
2022/03/19 11:34:43;;;;;;;6.95;2.42;;;;;;;10.83;39.79;104077.22;4736150;30;20040;-78
2022/03/19 11:37:09;;;;;;;5.82;2.72;;;;;;;10.83;37.90;104090.16;4735736;30;20055;-77
2022/03/19 11:39:34;;;;;;;6.07;2.40;;;;;;;10.82;36.81;104079.81;4736026;30;20068;-77
2022/03/19 11:41:59;;;;;;;6.68;2.35;;;;;;;10.70;35.94;104083.38;4735728;30;20044;-80
2022/03/19 11:44:27;;;;;;;5.25;2.47;;;;;;;10.56;37.79;104026.69;4735690;30;20138;-80
2022/03/19 11:47:03;;;;;;;6.18;2.25;;;;;;;10.81;36.09;104068.59;4736008;30;20033;-78